Time;durP1;ratioP1;P1;durP2;ratioP2;P2;SDS_P1;SDS_P2;PMS_P1;PMS_P2;Temp;Humidity;BMP_temperature;BMP_pressure;BME280_temperature;BME280_humidity;BME280_pressure;Samples;Min_cycle;Max_cycle;Signal;HPM_P1;HPM_P2
2022/12/05 00:02:10;;;;;;;;;;;;;;;8.96;71.16;96091.69;5115526;28;993;-70
2022/12/05 00:04:36;;;;;;;;;;;;;;;8.90;70.76;96088.69;5097320;28;1057;-70
2022/12/05 00:07:02;;;;;;;;;;;;;;;8.92;70.08;96090.25;5115357;28;1016;-70
2022/12/05 00:09:28;;;;;;;;;;;;;;;8.90;70.22;96089.53;5115386;28;981;-70
2022/12/05 00:11:54;;;;;;;;;;;;;;;8.81;71.10;96078.78;5097253;28;1045;-70
2022/12/05 00:14:20;;;;;;;;;;;;;;;8.86;71.17;96084.56;5115388;28;977;-70
2022/12/05 00:16:46;;;;;;;;;;;;;;;8.90;71.04;96086.03;5114918;28;1988;-70
2022/12/05 00:19:13;;;;;;;;;;;;;;;8.96;70.97;96088.16;5115141;28;1069;-70
2022/12/05 00:21:39;;;;;;;;;;;;;;;8.88;71.31;96085.28;5113938;28;1049;-70
2022/12/05 00:24:07;;;;;;;;;;;;;;;8.88;71.08;96082.59;5114986;28;1119;-70
2022/12/05 00:26:33;;;;;;;;;;;;;;;8.90;71.56;96076.19;5115062;28;969;-70
2022/12/05 00:28:59;;;;;;;;;;;;;;;8.83;71.86;96083.00;5115062;28;1032;-70
2022/12/05 00:31:26;;;;;;;;;;;;;;;8.88;71.95;96079.94;5114919;28;1005;-70
2022/12/05 00:33:52;;;;;;;;;;;;;;;8.98;71.78;96081.72;5114899;28;1020;-70
2022/12/05 00:36:23;;;;;;;;;;;;;;;8.81;72.79;96078.78;5096744;28;1890;-70
2022/12/05 00:38:49;;;;;;;;;;;;;;;8.77;73.06;96075.53;5114580;28;1456;-70
2022/12/05 00:41:17;;;;;;;;;;;;;;;8.86;72.72;96076.56;5114815;28;977;-70
2022/12/05 00:43:43;;;;;;;;;;;;;;;9.04;71.83;96084.88;5114616;28;1699;-70
2022/12/05 00:46:11;;;;;;;;;;;;;;;9.07;71.56;96076.59;5114730;28;1008;-70
2022/12/05 00:48:37;;;;;;;;;;;;;;;9.09;71.79;96078.16;5114548;28;1210;-70
2022/12/05 00:51:05;;;;;;;;;;;;;;;9.11;71.87;96076.22;5114472;28;1032;-70
2022/12/05 00:53:32;;;;;;;;;;;;;;;9.13;71.40;96082.25;5114350;28;1045;-70
2022/12/05 00:56:02;;;;;;;;;;;;;;;9.10;71.93;96079.84;5114491;28;1909;-70
2022/12/05 00:58:29;;;;;;;;;;;;;;;9.07;72.47;96080.13;5114439;28;1044;-70
2022/12/05 01:00:55;;;;;;;;;;;;;;;9.08;71.99;96080.97;5096249;28;1081;-70
2022/12/05 01:03:21;;;;;;;;;;;;;;;9.12;71.95;96069.88;5114245;28;1108;-70
2022/12/05 01:05:47;;;;;;;;;;;;;;;9.15;72.04;96072.31;5096387;28;1024;-70
2022/12/05 01:08:14;;;;;;;;;;;;;;;9.13;72.18;96063.59;5096465;28;1140;-70
2022/12/05 01:10:40;;;;;;;;;;;;;;;9.13;72.24;96068.91;5096246;28;970;-70
2022/12/05 01:13:06;;;;;;;;;;;;;;;9.13;71.87;96063.59;5114114;28;1084;-70
2022/12/05 01:15:35;;;;;;;;;;;;;;;8.99;72.84;96082.56;5114025;28;1910;-70
2022/12/05 01:18:01;;;;;;;;;;;;;;;9.09;72.46;96069.31;5114016;28;1072;-70
2022/12/05 01:20:27;;;;;;;;;;;;;;;9.04;72.50;96072.34;5095870;28;1066;-70
2022/12/05 01:22:54;;;;;;;;;;;;;;;8.94;72.87;96066.97;5113818;28;1109;-70
2022/12/05 01:25:20;;;;;;;;;;;;;;;8.94;73.10;96074.13;5113930;28;1066;-70
2022/12/05 01:27:46;;;;;;;;;;;;;;;9.02;73.01;96071.66;5095861;28;1050;-70
2022/12/05 01:30:12;;;;;;;;;;;;;;;9.09;72.69;96072.00;5113884;28;1060;-70
2022/12/05 01:32:39;;;;;;;;;;;;;;;9.15;72.21;96061.63;5113497;28;1031;-70
2022/12/05 01:35:05;;;;;;;;;;;;;;;9.14;71.96;96065.28;5113764;28;1910;-70
2022/12/05 01:37:31;;;;;;;;;;;;;;;9.10;71.83;96065.66;5095967;28;985;-71
2022/12/05 01:39:58;;;;;;;;;;;;;;;9.15;71.35;96061.63;5095657;28;1189;-71
2022/12/05 01:42:24;;;;;;;;;;;;;;;9.09;72.25;96064.81;5095837;28;1028;-71
2022/12/05 01:44:50;;;;;;;;;;;;;;;9.12;72.64;96061.88;5113688;28;1680;-71
2022/12/05 01:47:17;;;;;;;;;;;;;;;9.11;71.85;96060.19;5113753;28;1047;-71
2022/12/05 01:49:44;;;;;;;;;;;;;;;9.05;71.77;96055.38;5113607;28;1057;-71
2022/12/05 01:52:13;;;;;;;;;;;;;;;9.00;72.33;96062.94;5113660;28;1101;-71
2022/12/05 01:54:39;;;;;;;;;;;;;;;8.97;73.01;96063.16;5113431;28;1913;-71
2022/12/05 01:57:09;;;;;;;;;;;;;;;9.09;72.28;96056.81;5113782;28;1020;-71
2022/12/05 01:59:38;;;;;;;;;;;;;;;9.12;72.68;96055.69;5113640;28;1036;-70
2022/12/05 02:02:04;;;;;;;;;;;;;;;9.06;72.02;96057.06;5113597;28;1024;-71
2022/12/05 02:04:34;;;;;;;;;;;;;;;9.05;72.03;96054.53;5095666;28;1087;-71
2022/12/05 02:07:00;;;;;;;;;;;;;;;8.87;73.12;96056.94;5113791;28;1012;-70
2022/12/05 02:09:26;;;;;;;;;;;;;;;8.84;73.84;96051.84;5113611;28;987;-71
2022/12/05 02:11:53;;;;;;;;;;;;;;;8.75;74.56;96048.97;5095499;28;1076;-71
2022/12/05 02:14:26;;;;;;;;;;;;;;;8.59;75.36;96053.88;5113572;28;1040;-71
2022/12/05 02:17:04;;;;;;;;;;;;;;;8.75;75.01;96054.31;5113334;28;1979;-71
2022/12/05 02:19:42;;;;;;;;;;;;;;;8.71;75.21;96050.22;5095354;28;1134;-71
2022/12/05 02:22:19;;;;;;;;;;;;;;;8.45;76.15;96041.69;5095404;28;1053;-70
2022/12/05 02:25:18;;;;;;;;;;;;;;;8.46;76.37;96038.06;5113285;28;1245;-70
2022/12/05 02:27:56;;;;;;;;;;;;;;;8.75;75.22;96053.47;5057900;28;1273;-72
2022/12/05 02:30:23;;;;;;;;;;;;;;;8.94;74.03;96053.63;5113288;28;1080;-71
2022/12/05 02:32:54;;;;;;;;;;;;;;;8.86;73.35;96042.75;5113190;28;1124;-70
2022/12/05 02:35:20;;;;;;;;;;;;;;;8.83;73.20;96042.16;5113183;28;1909;-71
2022/12/05 02:38:05;;;;;;;;;;;;;;;8.78;73.59;96047.88;5113197;28;1582;-71
2022/12/05 02:40:38;;;;;;;;;;;;;;;8.78;73.54;96046.06;5075008;28;1455;-70
2022/12/05 02:43:30;;;;;;;;;;;;;;;8.82;73.54;96048.47;5093044;28;1024;-71
2022/12/05 02:45:58;;;;;;;;;;;;;;;8.87;73.74;96049.78;5057310;28;1195;-70
2022/12/05 02:48:26;;;;;;;;;;;;;;;8.89;73.72;96049.66;5096523;28;1116;-70
2022/12/05 02:50:54;;;;;;;;;;;;;;;8.92;73.43;96046.72;5096427;28;1700;-70
2022/12/05 02:53:21;;;;;;;;;;;;;;;8.87;74.22;96048.94;5096377;28;1054;-70
2022/12/05 02:55:48;;;;;;;;;;;;;;;8.88;73.80;96045.28;5096192;28;1988;-70
2022/12/05 02:58:18;;;;;;;;;;;;;;;9.00;73.57;96038.91;5099665;27;1346;-70
2022/12/05 03:00:46;;;;;;;;;;;;;;;9.04;73.44;96040.34;5137154;27;969;-70
2022/12/05 03:03:18;;;;;;;;;;;;;;;9.07;73.10;96033.91;5137205;27;1064;-70
2022/12/05 03:05:56;;;;;;;;;;;;;;;9.02;73.40;96028.97;5136980;27;1104;-70
2022/12/05 03:08:23;;;;;;;;;;;;;;;8.99;73.39;96034.53;5137185;27;1023;-70
2022/12/05 03:10:50;;;;;;;;;;;;;;;8.90;73.60;96030.00;5136876;27;1100;-70
2022/12/05 03:13:20;;;;;;;;;;;;;;;8.86;74.28;96034.75;5136930;27;1048;-70
2022/12/05 03:15:52;;;;;;;;;;;;;;;8.98;74.09;96038.22;5136989;27;1921;-70
2022/12/05 03:18:23;;;;;;;;;;;;;;;8.90;74.69;96041.53;5118631;27;1053;-70
2022/12/05 03:20:56;;;;;;;;;;;;;;;8.80;75.49;96040.59;5136718;27;1120;-70
2022/12/05 03:23:30;;;;;;;;;;;;;;;8.86;74.92;96034.75;5136701;27;1425;-70
2022/12/05 03:26:13;;;;;;;;;;;;;;;8.88;74.45;96040.81;5118523;27;1215;-70
2022/12/05 03:28:53;;;;;;;;;;;;;;;9.00;74.29;96036.25;5118455;27;1053;-70
2022/12/05 03:31:24;;;;;;;;;;;;;;;8.98;74.00;96041.72;5136601;27;1112;-70
2022/12/05 03:33:54;;;;;;;;;;;;;;;8.91;74.22;96042.34;5136616;27;965;-71
2022/12/05 03:36:27;;;;;;;;;;;;;;;8.86;74.47;96042.75;5118218;27;2000;-70
2022/12/05 03:39:01;;;;;;;;;;;;;;;8.89;74.73;96049.66;5128911;27;1215;-70
2022/12/05 03:41:28;;;;;;;;;;;;;;;8.96;74.33;96040.16;5115912;28;993;-70
2022/12/05 03:43:59;;;;;;;;;;;;;;;9.06;74.38;96040.22;5115920;28;933;-70
2022/12/05 03:46:33;;;;;;;;;;;;;;;8.97;74.17;96042.69;5115643;28;1119;-70
2022/12/05 03:49:14;;;;;;;;;;;;;;;8.98;74.16;96040.88;5116029;28;1005;-70
2022/12/05 03:52:00;;;;;;;;;;;;;;;9.01;73.88;96042.44;5115588;28;1049;-70
2022/12/05 03:54:46;;;;;;;;;;;;;;;8.97;73.91;96053.38;5098059;28;1177;-70
2022/12/05 03:57:12;;;;;;;;;;;;;;;8.97;74.30;96053.38;5115403;28;1062;-70
2022/12/05 03:59:42;;;;;;;;;;;;;;;8.99;74.18;96047.88;5115623;28;1048;-70
2022/12/05 04:02:14;;;;;;;;;;;;;;;9.06;74.29;96041.06;5115679;28;1023;-70
2022/12/05 04:04:47;;;;;;;;;;;;;;;9.16;73.74;96044.66;5115483;28;1035;-70
2022/12/05 04:07:15;;;;;;;;;;;;;;;9.21;73.83;96043.41;5115466;28;1024;-70
2022/12/05 04:09:44;;;;;;;;;;;;;;;9.16;73.72;96030.44;5115243;28;1136;-70
2022/12/05 04:12:13;;;;;;;;;;;;;;;8.92;74.84;96034.22;5115259;28;1033;-70
2022/12/05 04:14:41;;;;;;;;;;;;;;;8.93;75.20;96029.75;5097192;28;1926;-70
2022/12/05 04:17:10;;;;;;;;;;;;;;;9.02;74.37;96020.97;5115264;28;1020;-70
2022/12/05 04:22:24;;;;;;;;;;;;;;;8.87;75.12;96027.59;5115351;28;1032;-70
2022/12/05 04:27:55;;;;;;;;;;;;;;;9.07;74.49;96034.75;5115029;28;980;-71
2022/12/05 04:30:23;;;;;;;;;;;;;;;9.11;74.32;96044.19;5114894;28;1120;-71
2022/12/05 04:33:07;;;;;;;;;;;;;;;9.01;74.83;96043.28;5115069;28;1134;-71
2022/12/05 04:35:40;;;;;;;;;;;;;;;9.04;74.49;96044.84;5096547;28;1898;-71
2022/12/05 04:38:13;;;;;;;;;;;;;;;9.01;74.53;96043.28;5114774;28;1066;-71
2022/12/05 04:41:00;;;;;;;;;;;;;;;8.97;74.59;96056.03;5114816;28;1491;-70
2022/12/05 04:43:27;;;;;;;;;;;;;;;8.98;74.76;96046.22;5114364;28;1114;-71
2022/12/05 04:45:56;;;;;;;;;;;;;;;9.06;74.60;96045.56;5114581;28;1057;-70
2022/12/05 04:48:23;;;;;;;;;;;;;;;9.09;74.68;96047.97;5114584;28;1045;-70
2022/12/05 04:50:51;;;;;;;;;;;;;;;9.05;74.70;96051.84;5114307;28;1116;-70
2022/12/05 04:53:18;;;;;;;;;;;;;;;9.01;74.83;96064.63;5114501;28;1078;-70
2022/12/05 04:55:46;;;;;;;;;;;;;;;8.87;75.63;96070.28;5114222;28;1905;-70
2022/12/05 04:58:23;;;;;;;;;;;;;;;8.66;76.83;96072.91;5114616;28;1041;-70
2022/12/05 05:01:09;;;;;;;;;;;;;;;8.66;76.94;96075.56;5114448;28;969;-70
2022/12/05 05:03:39;;;;;;;;;;;;;;;8.88;76.14;96077.28;5062804;28;1147;-71
2022/12/05 05:06:06;;;;;;;;;;;;;;;9.00;75.66;96089.59;5114243;28;1016;-71
2022/12/05 05:08:32;;;;;;;;;;;;;;;9.06;74.96;96089.09;5113602;28;1116;-70
2022/12/05 05:11:01;;;;;;;;;;;;;;;9.10;74.63;96100.34;5114324;28;1001;-70
2022/12/05 05:13:28;;;;;;;;;;;;;;;9.12;74.32;96096.56;5114189;28;965;-70
2022/12/05 05:15:54;;;;;;;;;;;;;;;9.03;74.89;96110.69;5114138;28;1984;-71
2022/12/05 05:18:20;;;;;;;;;;;;;;;9.06;75.13;96107.75;5095937;28;1108;-70
2022/12/05 05:20:46;;;;;;;;;;;;;;;9.15;74.39;96107.00;5113912;28;1120;-70
2022/12/05 05:23:13;;;;;;;;;;;;;;;9.15;74.19;96109.66;5114054;28;1637;-70
2022/12/05 05:25:39;;;;;;;;;;;;;;;9.12;73.81;96101.91;5114114;28;1155;-70
2022/12/05 05:28:05;;;;;;;;;;;;;;;9.03;74.32;96109.84;5114075;28;1029;-70
2022/12/05 05:30:31;;;;;;;;;;;;;;;8.97;74.20;96101.38;5095758;28;1073;-70
2022/12/05 05:33:00;;;;;;;;;;;;;;;9.03;74.23;96109.84;5095939;28;1004;-70
2022/12/05 05:35:26;;;;;;;;;;;;;;;9.01;74.51;96109.13;5113861;28;1902;-68
2022/12/05 05:37:52;;;;;;;;;;;;;;;9.06;74.04;96113.09;5113765;28;921;-70
2022/12/05 05:40:18;;;;;;;;;;;;;;;9.10;73.95;96105.69;5113623;28;1145;-70
2022/12/05 05:42:46;;;;;;;;;;;;;;;9.07;74.38;96112.13;5095620;28;1132;-70
2022/12/05 05:45:13;;;;;;;;;;;;;;;9.04;74.51;96104.38;5113880;28;1033;-70
2022/12/05 05:47:39;;;;;;;;;;;;;;;9.00;74.88;96102.94;5113672;28;1048;-69
2022/12/05 05:50:06;;;;;;;;;;;;;;;8.87;75.12;96103.09;5113678;28;1149;-70
2022/12/05 05:52:33;;;;;;;;;;;;;;;8.73;76.11;96103.41;5113612;28;1049;-70
2022/12/05 05:55:00;;;;;;;;;;;;;;;8.74;76.10;96103.28;5095656;28;2000;-70
2022/12/05 05:57:26;;;;;;;;;;;;;;;8.84;75.67;96106.03;5113647;28;1135;-70
2022/12/05 05:59:52;;;;;;;;;;;;;;;8.91;75.69;96111.72;5113631;28;1111;-70
2022/12/05 06:02:18;;;;;;;;;;;;;;;8.94;75.54;96119.47;5113577;28;1128;-70
2022/12/05 06:04:44;;;;;;;;;;;;;;;8.94;75.69;96119.47;5113443;28;1028;-70
2022/12/05 06:07:10;;;;;;;;;;;;;;;8.96;74.96;96117.50;5113541;28;1100;-70
2022/12/05 06:09:36;;;;;;;;;;;;;;;9.01;74.52;96111.78;5113474;28;1061;-70
2022/12/05 06:12:02;;;;;;;;;;;;;;;9.05;74.69;96103.41;5113674;28;961;-69
2022/12/05 06:14:28;;;;;;;;;;;;;;;9.13;74.38;96110.78;5113438;28;1263;-70
2022/12/05 06:16:54;;;;;;;;;;;;;;;9.26;73.53;96114.09;5095238;28;1906;-70
2022/12/05 06:19:20;;;;;;;;;;;;;;;9.31;73.29;96108.34;5113950;28;1032;-70
2022/12/05 06:21:50;;;;;;;;;;;;;;;9.30;73.53;96104.84;5117602;28;1043;-70
2022/12/05 06:24:16;;;;;;;;;;;;;;;9.30;73.44;96104.84;5117032;28;1076;-69
2022/12/05 06:26:42;;;;;;;;;;;;;;;9.30;73.52;96104.00;5098690;28;1179;-69
2022/12/05 06:29:09;;;;;;;;;;;;;;;9.22;73.92;96111.81;5117192;28;1065;-69
2022/12/05 06:31:35;;;;;;;;;;;;;;;9.18;74.54;96109.41;5117098;28;1016;-69
2022/12/05 06:34:02;;;;;;;;;;;;;;;9.34;74.08;96105.44;5117128;28;1104;-69
2022/12/05 06:36:28;;;;;;;;;;;;;;;9.38;74.13;96102.38;5098801;28;1906;-69
2022/12/05 06:38:58;;;;;;;;;;;;;;;9.42;74.47;96104.78;5098853;28;1165;-70
2022/12/05 06:41:24;;;;;;;;;;;;;;;9.43;74.33;96107.34;5116971;28;1041;-70
2022/12/05 06:43:52;;;;;;;;;;;;;;;9.39;74.63;96108.56;5116953;28;1049;-69
2022/12/05 06:46:18;;;;;;;;;;;;;;;9.44;74.71;96106.34;5098767;28;1100;-69
2022/12/05 06:48:44;;;;;;;;;;;;;;;9.41;74.48;96109.28;5116788;28;1092;-70
2022/12/05 06:51:11;;;;;;;;;;;;;;;9.47;73.81;96107.91;5116860;28;1101;-69
2022/12/05 06:53:37;;;;;;;;;;;;;;;9.50;72.56;96104.97;5116808;28;1020;-70
2022/12/05 06:56:06;;;;;;;;;;;;;;;9.49;73.31;96112.16;5098757;28;1918;-70
2022/12/05 06:58:32;;;;;;;;;;;;;;;9.45;73.43;96110.72;5098505;28;1053;-70
2022/12/05 07:03:43;;;;;;;;;;;;;;;9.62;73.10;96114.63;5116523;28;1104;-69
2022/12/05 07:06:09;;;;;;;;;;;;;;;9.62;73.07;96124.44;5116641;28;958;-70
2022/12/05 07:08:35;;;;;;;;;;;;;;;9.63;73.03;96116.28;5116532;28;1076;-69
2022/12/05 07:11:02;;;;;;;;;;;;;;;9.63;73.94;96118.13;5098476;28;1037;-70
2022/12/05 07:13:28;;;;;;;;;;;;;;;9.61;73.68;96120.09;5116215;28;926;-70
2022/12/05 07:15:54;;;;;;;;;;;;;;;9.61;74.01;96115.56;5116273;28;1988;-69
2022/12/05 07:18:20;;;;;;;;;;;;;;;9.53;74.41;96124.25;5116430;28;1021;-69
2022/12/05 07:20:54;;;;;;;;;;;;;;;9.47;74.41;96124.78;5116161;28;1049;-70
2022/12/05 07:23:21;;;;;;;;;;;;;;;9.53;74.48;96120.75;5121245;27;1214;-70
2022/12/05 07:25:47;;;;;;;;;;;;;;;9.52;74.69;96122.56;5136648;27;1053;-70
2022/12/05 07:28:13;;;;;;;;;;;;;;;9.46;74.83;96124.91;5136654;27;913;-70
2022/12/05 07:30:39;;;;;;;;;;;;;;;9.43;75.09;96133.16;5118065;27;1032;-69
2022/12/05 07:33:05;;;;;;;;;;;;;;;9.40;75.46;96138.78;5136789;27;988;-68
2022/12/05 07:35:31;;;;;;;;;;;;;;;9.51;74.70;96128.88;5118422;27;1930;-69
2022/12/05 07:37:57;;;;;;;;;;;;;;;9.43;75.06;96134.03;5136460;27;1100;-70
2022/12/05 07:40:23;;;;;;;;;;;;;;;9.27;75.40;96133.63;5116235;27;1176;-69
2022/12/05 07:42:52;;;;;;;;;;;;;;;9.26;75.91;96142.59;5097629;28;1057;-70
2022/12/05 07:45:19;;;;;;;;;;;;;;;9.42;75.28;96135.00;5115816;28;1068;-69
2022/12/05 07:47:45;;;;;;;;;;;;;;;9.54;74.79;96135.75;5115951;28;965;-69
2022/12/05 07:50:12;;;;;;;;;;;;;;;9.59;74.56;96136.22;5097770;28;1112;-69
2022/12/05 07:52:38;;;;;;;;;;;;;;;9.61;74.50;96142.28;5115740;28;1036;-70
2022/12/05 07:55:05;;;;;;;;;;;;;;;9.61;74.75;96138.78;5115572;28;1991;-70
2022/12/05 07:57:31;;;;;;;;;;;;;;;9.68;74.19;96150.63;5115476;28;1105;-70
2022/12/05 07:59:57;;;;;;;;;;;;;;;9.74;74.16;96148.25;5115773;28;1021;-72
2022/12/05 08:02:23;;;;;;;;;;;;;;;9.71;74.58;96150.34;5115944;28;1294;-72
2022/12/05 08:04:49;;;;;;;;;;;;;;;9.72;74.44;96147.56;5115365;28;1258;-70
2022/12/05 08:07:16;;;;;;;;;;;;;;;9.77;74.66;96147.19;5097222;28;1070;-70
2022/12/05 08:09:42;;;;;;;;;;;;;;;9.77;74.15;96140.00;5115273;28;1041;-70
2022/12/05 08:12:08;;;;;;;;;;;;;;;9.77;74.45;96149.84;5115226;28;965;-69
2022/12/05 08:14:34;;;;;;;;;;;;;;;9.75;74.29;96155.31;5115183;28;1136;-68
2022/12/05 08:17:00;;;;;;;;;;;;;;;9.71;73.98;96147.69;5115330;28;1897;-70
2022/12/05 08:19:26;;;;;;;;;;;;;;;9.74;73.92;96158.13;5114979;28;1046;-69
2022/12/05 08:21:53;;;;;;;;;;;;;;;9.81;74.00;96161.94;5115206;28;1032;-69
2022/12/05 08:24:19;;;;;;;;;;;;;;;9.84;73.80;96159.00;5114850;28;1120;-69
2022/12/05 08:26:45;;;;;;;;;;;;;;;9.92;73.42;96156.53;5114819;28;1089;-70
2022/12/05 08:29:13;;;;;;;;;;;;;;;10.07;72.91;96157.03;5115188;28;1024;-70
2022/12/05 08:31:41;;;;;;;;;;;;;;;10.18;72.74;96161.44;5115153;28;989;-65
2022/12/05 08:34:07;;;;;;;;;;;;;;;10.19;72.43;96164.94;5114985;28;1000;-70
2022/12/05 08:36:33;;;;;;;;;;;;;;;10.13;72.73;96161.84;5114816;28;1961;-69
2022/12/05 08:39:03;;;;;;;;;;;;;;;10.11;72.66;96160.25;5114788;28;1097;-70
2022/12/05 08:41:30;;;;;;;;;;;;;;;10.10;72.09;96158.59;5114537;28;1112;-70
2022/12/05 08:43:57;;;;;;;;;;;;;;;10.10;72.60;96161.25;5113888;28;1101;-70
2022/12/05 08:46:24;;;;;;;;;;;;;;;10.11;72.78;96154.91;5114849;28;1051;-70
2022/12/05 08:48:52;;;;;;;;;;;;;;;10.07;72.77;96153.50;5114758;28;1080;-69
2022/12/05 08:51:18;;;;;;;;;;;;;;;10.01;73.28;96156.72;5114563;28;1108;-69
2022/12/05 08:53:45;;;;;;;;;;;;;;;10.02;72.66;96150.41;5114395;28;1100;-70
2022/12/05 08:56:11;;;;;;;;;;;;;;;10.00;72.65;96146.97;5096507;28;1909;-70
2022/12/05 08:58:38;;;;;;;;;;;;;;;10.01;72.62;96143.34;5114262;28;1041;-70
2022/12/05 09:01:05;;;;;;;;;;;;;;;10.00;72.57;96141.66;5114379;28;1056;-69
2022/12/05 09:03:32;;;;;;;;;;;;;;;10.06;71.86;96146.47;5114303;28;1045;-69
2022/12/05 09:06:15;;;;;;;;;;;;;;;10.21;71.17;96142.47;5114307;28;1068;-70
2022/12/05 09:09:04;;;;;;;;;;;;;;;10.45;70.18;96138.63;5111615;28;1710;-70
2022/12/05 09:11:32;;;;;;;;;;;;;;;10.75;69.52;96133.19;5113872;28;1262;-70
2022/12/05 09:13:59;;;;;;;;;;;;;;;10.86;68.83;96136.75;5114122;28;1112;-70
2022/12/05 09:16:31;;;;;;;;;;;;;;;10.92;68.26;96133.50;5095991;28;1906;-70
2022/12/05 09:18:57;;;;;;;;;;;;;;;10.94;68.70;96131.53;5113988;28;1263;-70
2022/12/05 09:21:25;;;;;;;;;;;;;;;11.42;66.64;96125.38;5113710;28;1385;-70
2022/12/05 09:23:52;;;;;;;;;;;;;;;12.19;64.66;96125.34;5113878;28;1334;-70
2022/12/05 09:26:24;;;;;;;;;;;;;;;12.40;63.59;96125.09;5114144;28;1032;-70
2022/12/05 09:28:51;;;;;;;;;;;;;;;12.51;62.88;96122.22;5114035;28;1211;-70
2022/12/05 09:31:19;;;;;;;;;;;;;;;12.41;62.99;96122.28;5095627;28;1063;-70
2022/12/05 09:33:47;;;;;;;;;;;;;;;12.16;63.62;96120.25;5113782;28;1198;-69
2022/12/05 09:36:15;;;;;;;;;;;;;;;11.84;64.79;96122.31;5113732;28;1984;-70
2022/12/05 09:38:41;;;;;;;;;;;;;;;11.65;65.68;96119.69;5113732;28;1196;-70
2022/12/05 09:41:10;;;;;;;;;;;;;;;11.52;65.50;96112.78;5113572;28;1181;-70
2022/12/05 09:43:55;;;;;;;;;;;;;;;11.44;66.44;96104.63;5113654;28;1061;-70
2022/12/05 09:46:34;;;;;;;;;;;;;;;11.44;66.32;96107.31;5095579;28;1599;-71
2022/12/05 09:49:01;;;;;;;;;;;;;;;11.47;66.45;96103.50;5113805;28;1101;-70
2022/12/05 09:51:28;;;;;;;;;;;;;;;11.41;66.90;96093.38;5095341;28;1068;-70
2022/12/05 09:53:55;;;;;;;;;;;;;;;11.41;67.62;96088.00;5114847;28;1065;-70
2022/12/05 09:56:27;;;;;;;;;;;;;;;11.39;66.67;96090.00;5117882;28;1906;-70
2022/12/05 09:58:54;;;;;;;;;;;;;;;11.28;67.04;96096.34;5117820;28;1112;-70
2022/12/05 10:01:26;;;;;;;;;;;;;;;11.26;67.72;96090.28;5117889;28;1290;-70
2022/12/05 10:04:12;;;;;;;;;;;;;;;11.25;66.38;96081.41;5117933;28;1053;-70
2022/12/05 10:06:40;;;;;;;;;;;;;;;11.20;66.63;96088.19;5117694;28;1435;-70
2022/12/05 10:09:11;;;;;;;;;;;;;;;11.16;67.13;96081.41;5117729;28;949;-70
2022/12/05 10:11:42;;;;;;;;;;;;;;;11.17;66.64;96075.06;5099303;28;1708;-71
2022/12/05 10:14:08;;;;;;;;;;;;;;;11.13;66.80;96071.81;5117829;28;1012;-70
2022/12/05 10:16:48;;;;;;;;;;;;;;;11.08;66.18;96061.56;5082474;28;1989;-70
2022/12/05 10:19:47;;;;;;;;;;;;;;;10.94;67.83;96067.31;5117534;28;1215;-70
2022/12/05 10:22:21;;;;;;;;;;;;;;;11.01;68.17;96068.47;5072412;28;1168;-70
2022/12/05 10:24:50;;;;;;;;;;;;;;;11.06;67.99;96066.22;5098973;28;1504;-70
2022/12/05 10:27:18;;;;;;;;;;;;;;;11.05;67.94;96061.84;5117497;28;1008;-70
2022/12/05 10:30:03;;;;;;;;;;;;;;;11.04;67.01;96060.16;5099203;28;1627;-69
2022/12/05 10:32:32;;;;;;;;;;;;;;;11.06;66.75;96060.00;5117147;28;1077;-69
2022/12/05 10:35:00;;;;;;;;;;;;;;;11.07;66.43;96051.81;5117293;28;1996;-68
2022/12/05 10:37:29;;;;;;;;;;;;;;;10.99;67.06;96050.88;5117022;28;1057;-68
2022/12/05 10:39:57;;;;;;;;;;;;;;;11.06;67.23;96043.94;5117187;28;1355;-68
2022/12/05 10:42:33;;;;;;;;;;;;;;;11.12;67.75;96046.06;5098748;28;1185;-68
2022/12/05 10:45:03;;;;;;;;;;;;;;;11.12;67.18;96046.91;5117527;28;966;-68
2022/12/05 10:47:31;;;;;;;;;;;;;;;11.15;67.92;96043.06;5116853;28;1050;-68
2022/12/05 10:49:58;;;;;;;;;;;;;;;11.21;66.89;96041.66;5117053;28;1032;-68
2022/12/05 10:52:25;;;;;;;;;;;;;;;11.31;66.78;96027.28;5116810;28;1180;-68
2022/12/05 10:54:56;;;;;;;;;;;;;;;11.41;66.66;96034.47;5116767;28;1073;-68
2022/12/05 10:57:24;;;;;;;;;;;;;;;11.51;66.47;96035.25;5116761;28;988;-68
2022/12/05 10:59:50;;;;;;;;;;;;;;;11.64;66.06;96029.59;5116941;28;1082;-69
2022/12/05 11:02:27;;;;;;;;;;;;;;;11.78;66.00;96022.91;5098530;28;1036;-68
2022/12/05 11:04:53;;;;;;;;;;;;;;;11.87;65.61;96030.91;5116195;28;1045;-68
2022/12/05 11:07:29;;;;;;;;;;;;;;;11.94;65.32;96028.50;5116068;28;1053;-68
2022/12/05 11:09:56;;;;;;;;;;;;;;;12.03;64.86;96021.44;5116509;28;1173;-68
2022/12/05 11:12:28;;;;;;;;;;;;;;;12.04;64.03;96017.75;5116160;28;1239;-68
2022/12/05 11:14:54;;;;;;;;;;;;;;;11.98;63.54;96019.19;5116649;28;984;-68
2022/12/05 11:17:25;;;;;;;;;;;;;;;12.07;62.81;96010.25;5098285;28;1086;-68
2022/12/05 11:19:51;;;;;;;;;;;;;;;12.23;62.73;96006.91;5116308;28;1089;-68
2022/12/05 11:22:17;;;;;;;;;;;;;;;12.36;62.38;96005.72;5115921;28;1215;-68
2022/12/05 11:24:44;;;;;;;;;;;;;;;12.33;61.96;96000.66;5116053;28;1226;-68
2022/12/05 11:27:16;;;;;;;;;;;;;;;12.32;62.61;95991.75;5116411;28;953;-68
2022/12/05 11:29:54;;;;;;;;;;;;;;;12.22;62.37;95997.19;5116350;28;1024;-68
2022/12/05 11:32:22;;;;;;;;;;;;;;;12.10;63.50;95998.38;5115866;28;1194;-69
2022/12/05 11:35:08;;;;;;;;;;;;;;;12.02;63.82;95993.75;5115852;28;1080;-71
2022/12/05 11:37:42;;;;;;;;;;;;;;;11.95;63.38;95991.84;5115927;28;1137;-71
2022/12/05 11:40:13;;;;;;;;;;;;;;;11.98;64.01;95978.16;5116074;28;1149;-70
2022/12/05 11:42:57;;;;;;;;;;;;;;;12.00;64.20;95976.16;5115560;28;1037;-71
2022/12/05 11:45:42;;;;;;;;;;;;;;;11.94;63.84;95974.09;5097637;28;1037;-71
2022/12/05 11:48:17;;;;;;;;;;;;;;;11.95;64.27;95971.25;5097719;28;1049;-71
2022/12/05 11:51:02;;;;;;;;;;;;;;;11.92;63.26;95960.81;5115388;28;1061;-70
2022/12/05 11:53:37;;;;;;;;;;;;;;;11.91;63.75;95964.50;5115652;28;1032;-70
2022/12/05 11:56:36;;;;;;;;;;;;;;;11.84;63.76;95958.03;5115783;28;1910;-70
2022/12/05 11:59:14;;;;;;;;;;;;;;;11.79;64.37;95955.78;5053735;28;1266;-70
2022/12/05 12:01:40;;;;;;;;;;;;;;;11.82;64.32;95954.63;5097072;28;1385;-71
2022/12/05 12:04:18;;;;;;;;;;;;;;;11.86;64.34;95951.50;5115434;28;990;-70
2022/12/05 12:07:10;;;;;;;;;;;;;;;11.91;64.38;95951.94;5115599;28;977;-70
2022/12/05 12:09:36;;;;;;;;;;;;;;;11.87;64.07;95947.00;5083974;28;1244;-71
2022/12/05 12:12:21;;;;;;;;;;;;;;;11.84;64.75;95942.78;5115042;28;1061;-71
2022/12/05 12:14:50;;;;;;;;;;;;;;;11.81;64.45;95945.75;5097126;28;970;-70
2022/12/05 12:17:25;;;;;;;;;;;;;;;11.78;64.91;95937.16;5115216;28;1906;-70
2022/12/05 12:19:54;;;;;;;;;;;;;;;11.78;65.27;95943.41;5097141;28;1035;-69
2022/12/05 12:22:27;;;;;;;;;;;;;;;11.80;65.66;95930.69;5114812;28;1132;-69
2022/12/05 12:25:26;;;;;;;;;;;;;;;11.85;64.97;95927.53;5086096;28;1384;-68
2022/12/05 12:28:11;;;;;;;;;;;;;;;11.80;65.62;95925.31;5071321;28;1363;-68
2022/12/05 12:30:56;;;;;;;;;;;;;;;11.86;65.97;95927.41;5074381;28;1291;-68
2022/12/05 12:33:33;;;;;;;;;;;;;;;11.89;65.41;95923.56;5074194;28;1054;-68
2022/12/05 12:36:02;;;;;;;;;;;;;;;11.88;65.53;95920.06;5073048;28;1980;-68
2022/12/05 12:38:38;;;;;;;;;;;;;;;11.81;65.50;95918.97;5073816;28;1223;-68
2022/12/05 12:41:24;;;;;;;;;;;;;;;11.81;65.87;95910.09;5074220;28;1013;-68
2022/12/05 12:44:01;;;;;;;;;;;;;;;11.79;65.57;95915.59;5074033;28;1667;-69
2022/12/05 12:46:46;;;;;;;;;;;;;;;11.70;66.16;95906.63;5073945;28;1061;-68
2022/12/05 12:49:48;;;;;;;;;;;;;;;11.61;66.86;95893.25;5073720;28;1070;-68
2022/12/05 12:52:17;;;;;;;;;;;;;;;11.65;66.56;95900.03;5011989;28;1802;-68
2022/12/05 12:54:57;;;;;;;;;;;;;;;11.68;66.03;95903.22;5063161;28;1481;-68
2022/12/05 12:57:26;;;;;;;;;;;;;;;11.68;66.56;95902.41;5073761;28;1894;-68
2022/12/05 12:59:52;;;;;;;;;;;;;;;11.73;65.82;95905.47;5073534;28;1363;-68
2022/12/05 13:02:28;;;;;;;;;;;;;;;11.71;66.03;95896.75;5087729;28;1175;-68
2022/12/05 13:04:59;;;;;;;;;;;;;;;11.73;66.62;95906.31;5094594;28;958;-68
2022/12/05 13:07:26;;;;;;;;;;;;;;;11.73;66.10;95908.16;5093853;28;1228;-68
2022/12/05 13:09:58;;;;;;;;;;;;;;;11.71;66.48;95905.63;5075651;28;1132;-68
2022/12/05 13:12:26;;;;;;;;;;;;;;;11.68;66.72;95903.22;5073593;28;1088;-68
2022/12/05 13:14:57;;;;;;;;;;;;;;;11.70;65.99;95895.06;5073577;28;1113;-68
2022/12/05 13:17:23;;;;;;;;;;;;;;;11.64;66.19;95893.81;5073462;28;1995;-68
2022/12/05 13:19:50;;;;;;;;;;;;;;;11.65;66.37;95895.50;5073448;28;1298;-68
2022/12/05 13:22:18;;;;;;;;;;;;;;;11.67;66.12;95900.72;5073478;28;1147;-68
2022/12/05 13:24:45;;;;;;;;;;;;;;;11.68;66.20;95897.88;5073396;28;1049;-68
2022/12/05 13:27:15;;;;;;;;;;;;;;;11.71;66.65;95896.75;5086675;28;1242;-68
2022/12/05 13:29:47;;;;;;;;;;;;;;;11.73;66.40;95898.28;5092901;28;1250;-68